ADDS METAR Data INFO
IDs: Format: Raw Decoded Include TAF

Data at: 1746 UTC 21 Oct 2017

K7BM 211730Z AUTO 25014G24KT 210V280 CLR 02/M13 A3009 RMK AO2 PWINO
K7BM 211712Z AUTO 23013G25KT 210V280 CLR 01/M14 A3009 RMK AO2 PWINO
K7BM 211653Z AUTO 23015G27KT CLR 01/M14 A3007 RMK AO2 PWINO
K7BM 211630Z AUTO 22018G36KT CLR 01/M12 A3005 RMK AO2 PWINO
K7BM 211612Z AUTO 25015G35KT 220V290 CLR 00/M12 A3003 RMK AO2 PWINO
K7BM 211554Z AUTO 31010G32KT 260V330 CLR 00/M11 A3002 RMK AO2 PWINO
K7BM 211530Z AUTO 25022G34KT CLR 00/M11 A3002 RMK AO2 PWINO
K7BM 211512Z AUTO 28016G32KT 250V330 CLR 00/M10 A3000 RMK AO2 PWINO
K7BM 211451Z AUTO 27021G32KT 230V290 CLR 00/M10 A2998 RMK AO2 PWINO
K7BM 211429Z AUTO 26023G40KT 230V310 CLR 00/M10 A2996 RMK AO2 PWINO
K7BM 211411Z AUTO 28020G40KT 250V310 CLR 00/M10 A2995 RMK AO2 PWINO
K7BM 211354Z AUTO 27024G44KT 250V310 CLR 00/M09 A2992 RMK AO2 PWINO
K7BM 211330Z AUTO 27033G52KT 230V290 CLR 00/M10 A2989 RMK AO2 PWINO
K7BM 211313Z AUTO 27031G42KT CLR 00/M09 A2989 RMK AO2 PWINO
K7BM 211254Z AUTO 26026G39KT CLR 00/M08 A2989 RMK AO2 PWINO
K7BM 211231Z AUTO 26022G34KT 230V290 CLR 00/M08 A2991 RMK AO2 PWINO
K7BM 211213Z AUTO 27012G25KT 250V320 CLR 00/M07 A2993 RMK AO2 PWINO
K7BM 211153Z AUTO 27013G28KT 190V320 SCT060 00/M07 A2992 RMK AO2 PWINO
K7BM 211130Z AUTO 26017G35KT SCT060 01/M07 A2992 RMK AO2 PWINO
K7BM 211111Z AUTO 28019G31KT 230V310 CLR 01/M06 A2990 RMK AO2 PWINO
K7BM 211054Z AUTO 26018G28KT 01/M05 A2990 RMK AO2 SKY OBSCURED PWINO
K7BM 211030Z AUTO 26015G37KT 210V300 SCT029 BKN043 OVC060 02/M03 A2989 RMK AO2 PWINO
K7BM 211011Z AUTO 27016G29KT 230V310 SCT013 BKN031 OVC049 02/M02 A2989 RMK AO2 PWINO
K7BM 210954Z AUTO 26017G26KT 230V340 SCT011 BKN019 OVC034 02/M01 A2987 RMK AO2 PWINO
K7BM 210931Z AUTO 27014G25KT 220V310 SCT015 BKN026 OVC036 02/M01 A2987 RMK AO2 PWINO
K7BM 210913Z AUTO 30011G21KT 260V330 SCT017 BKN023 OVC038 02/00 A2986 RMK AO2 PWINO
K7BM 210854Z AUTO 32011G18KT 280V350 SCT022 BKN030 OVC037 02/00 A2987 RMK AO2 PWINO
K7BM 210830Z AUTO 00000KT SCT004 SCT029 BKN047 04/01 A2987 RMK AO2 PWINO
K7BM 210813Z AUTO 22006KT SCT020 SCT040 SCT055 05/00 A2986 RMK AO2 PWINO
K7BM 210749Z AUTO 29014G28KT 250V330 VCTS SCT004 BKN015 OVC025 05/01 A2983 RMK AO2
K7BM 210731Z AUTO 27017G30KT BKN004 OVC008 04/02 A2985 RMK AO2 PWINO
K7BM 210712Z AUTO 25024G34KT OVC004 04/02 A2985 RMK AO2 LTG DSNT SW PWINO
K7BM 210647Z AUTO 27016G27KT SCT007 BKN012 OVC020 05/02 A2985 RMK AO2 PWINO
K7BM 210629Z AUTO 27014G24KT SCT011 BKN017 OVC030 06/02 A2982 RMK AO2 PWINO
K7BM 210612Z AUTO 26014G21KT SCT018 BKN032 OVC045 06/02 A2982 RMK AO2 PWINO
K7BM 210550Z AUTO 25010KT BKN005 BKN023 OVC030 05/03 A2983 RMK AO2 PWINO
K7BM 210532Z AUTO 23012G25KT BKN004 BKN009 OVC014 05/03 A2986 RMK AO2 PWINO
K7BM 210511Z AUTO 29008G17KT 240V010 SCT014 BKN021 OVC041 06/02 A2987 RMK AO2 PWINO
K7BM 210449Z AUTO 33012G23KT 290V360 SCT040 BKN050 OVC065 07/01 A2984 RMK AO2 PWINO
K7BM 210432Z AUTO 26013G22KT 230V340 SCT033 BKN060 OVC100 11/M04 A2984 RMK AO2 PWINO
K7BM 210414Z AUTO 00000KT SCT043 BKN055 OVC065 11/M05 A2984 RMK AO2 PWINO
K7BM 210353Z AUTO 20011G23KT 160V220 SCT033 SCT041 BKN050 11/M05 A2983 RMK AO2 PWINO
K7BM 210329Z AUTO 25004KT SCT050 11/M05 A2983 RMK AO2 PWINO
K7BM 210312Z AUTO 24005KT SCT050 SCT060 11/M07 A2984 RMK AO2 PWINO
K7BM 210254Z AUTO 24008KT SCT060 SCT065 11/M07 A2985 RMK AO2 PWINO
K7BM 210230Z AUTO 23006G18KT CLR 11/M07 A2985 RMK AO2 PWINO
K7BM 210212Z AUTO 23008KT SCT080 11/M08 A2986 RMK AO2 PWINO
K7BM 210150Z AUTO 24008KT CLR 12/M08 A2986 RMK AO2 PWINO
K7BM 210131Z AUTO 24011G21KT CLR 12/M08 A2987 RMK AO2 PWINO
K7BM 210113Z AUTO 24013G23KT CLR 12/M09 A2987 RMK AO2 PWINO
K7BM 210054Z AUTO 25014G27KT CLR 12/M10 A2986 RMK AO2 PWINO
K7BM 210030Z AUTO 27006KT CLR 12/M09 A2986 RMK AO2 PWINO
K7BM 210012Z AUTO 27005G15KT CLR 12/M10 A2986 RMK AO2 PWINO
K7BM 202354Z AUTO 24014G23KT SCT090 14/M10 A2986 RMK AO2 PWINO
K7BM 202330Z AUTO 28005G14KT SCT090 15/M10 A2986 RMK AO2 PWINO
K7BM 202313Z AUTO 25005G15KT SCT090 15/M10 A2987 RMK AO2 PWINO
K7BM 202253Z AUTO 25010G22KT CLR 16/M12 A2986 RMK AO2 PWINO
K7BM 202229Z AUTO 24019G29KT CLR 16/M15 A2987 RMK AO2 PWINO
K7BM 202212Z AUTO 23014G25KT SCT095 17/M12 A2988 RMK AO2 PWINO
K7BM 202153Z AUTO 22011G24KT SCT095 16/M12 A2988 RMK AO2 PWINO
K7BM 202129Z AUTO 23017G35KT SCT095 16/M11 A2988 RMK AO2 PWINO
K7BM 202112Z AUTO 23028G42KT CLR 17/M10 A2988 RMK AO2 PWINO
K7BM 202053Z AUTO 22008G26KT 180V270 CLR 17/M10 A2988 RMK AO2 PWINO
K7BM 202031Z AUTO 22013G39KT 200V260 CLR 16/M11 A2989 RMK AO2 PWINO
K7BM 202013Z AUTO 23021G35KT 190V260 CLR 15/M10 A2989 RMK AO2 PWINO
K7BM 201953Z AUTO 24014G28KT 200V280 CLR 16/M09 A2990 RMK AO2 PWINO
K7BM 201930Z AUTO 23018G33KT 190V250 CLR 15/M08 A2991 RMK AO2 PWINO
K7BM 201913Z AUTO 25019G29KT CLR 15/M07 A2992 RMK AO2 PWINO
K7BM 201850Z AUTO 25020G29KT CLR 15/M08 A2993 RMK AO2 PWINO
K7BM 201832Z AUTO 24015G21KT 210V280 CLR 16/M06 A2994 RMK AO2 PWINO
K7BM 201813Z AUTO 22005G21KT CLR 16/M05 A2996 RMK AO2 PWINO
K7BM 201749Z AUTO 12005KT CLR 14/00 A2997 RMK AO2 PWINO
K7BM 201731Z AUTO 11005KT CLR 13/00 A2998 RMK AO2 PWINO
K7BM 201713Z AUTO 14006KT CLR 13/00 A2998 RMK AO2 PWINO
K7BM 201654Z AUTO 14004G28KT CLR 13/M02 A3002 RMK AO2 PWINO
K7BM 201630Z AUTO 12006KT CLR 10/M01 A3002 RMK AO2 PWINO
K7BM 201612Z AUTO 12008KT SCT050 10/M01 A3002 RMK AO2 PWINO
K7BM 201549Z AUTO 14004KT SCT050 09/M01 A3003 RMK AO2 PWINO
K7BM 201531Z AUTO 12008KT 100V160 SCT047 SCT070 08/M02 A3003 RMK AO2 PWINO
K7BM 201513Z AUTO 11004KT 07/M01 A3004 RMK AO2 SKY OBSCURED PWINO
K7BM 201447Z AUTO 00000KT BKN048 BKN060 OVC070 08/M01 A3004 RMK AO2 PWINO
K7BM 201431Z AUTO 10004KT BKN048 BKN060 BKN070 08/M02 A3005 RMK AO2 PWINO
K7BM 201413Z AUTO 00000KT SCT050 07/M02 A3004 RMK AO2 PWINO
K7BM 201353Z AUTO 00000KT SCT048 08/M01 A3005 RMK AO2 PWINO
K7BM 201330Z AUTO 13004KT SCT048 SCT055 09/M02 A3005 RMK AO2 PWINO
K7BM 201312Z AUTO 14003KT OVC048 08/M02 A3006 RMK AO2 PWINO
K7BM 201253Z AUTO 11004KT BKN048 OVC055 09/M02 A3006 RMK AO2 PWINO
K7BM 201229Z AUTO 17004KT OVC048 09/M02 A3007 RMK AO2 PWINO
K7BM 201211Z AUTO 00000KT BKN050 09/M01 A3007 RMK AO2 PWINO
K7BM 201154Z AUTO 00000KT CLR 08/M02 A3007 RMK AO2 PWINO
K7BM 201131Z AUTO 20005KT CLR 10/M01 A3008 RMK AO2 PWINO
K7BM 201113Z AUTO 29005G17KT CLR 10/M01 A3007 RMK AO2 PWINO
K7BM 201049Z AUTO 29008KT CLR 10/M01 A3008 RMK AO2 PWINO
K7BM 201030Z AUTO 29006KT CLR 10/M02 A3009 RMK AO2 PWINO
K7BM 201012Z AUTO 25008KT CLR 10/M02 A3009 RMK AO2 PWINO
K7BM 200952Z AUTO 00000KT CLR 10/M02 A3010 RMK AO2 PWINO
K7BM 200934Z AUTO 25005KT CLR 10/M02 A3010 RMK AO2 PWINO
K7BM 200912Z AUTO 24008G15KT 220V280 CLR 10/M02 A3011 RMK AO2 PWINO
K7BM 200852Z AUTO 26005KT SCT110 10/M02 A3012 RMK AO2 PWINO
K7BM 200830Z AUTO 31004KT CLR 10/M03 A3013 RMK AO2 PWINO
K7BM 200812Z AUTO 24006KT CLR 11/M03 A3014 RMK AO2 PWINO
K7BM 200753Z AUTO 24008KT CLR 11/M03 A3014 RMK AO2 PWINO
K7BM 200730Z AUTO 23007KT CLR 12/M04 A3014 RMK AO2 PWINO
K7BM 200713Z AUTO 24008KT CLR 12/M05 A3015 RMK AO2 PWINO
K7BM 200649Z AUTO 24008KT BKN095 12/M05 A3015 RMK AO2 PWINO
K7BM 200631Z AUTO 23008KT CLR 12/M05 A3015 RMK AO2 PWINO
K7BM 200613Z AUTO 24011G15KT CLR 12/M05 A3016 RMK AO2 PWINO
K7BM 200553Z AUTO 24012G16KT CLR 12/M06 A3016 RMK AO2 PWINO